createdAt,value
2018-07-19T00:00:50.454Z,18.15
2018-07-19T00:03:18.526Z,18.12
2018-07-19T00:05:46.540Z,18.09
2018-07-19T00:08:14.569Z,18.05
2018-07-19T00:10:42.608Z,18.02
2018-07-19T00:13:10.671Z,17.97
2018-07-19T00:15:38.719Z,17.94
2018-07-19T00:18:06.760Z,17.89
2018-07-19T00:20:34.790Z,17.86
2018-07-19T00:23:02.815Z,17.81
2018-07-19T00:25:30.843Z,17.78
2018-07-19T00:27:58.881Z,17.75
2018-07-19T00:30:26.908Z,17.71
2018-07-19T00:32:54.936Z,17.68
2018-07-19T00:35:22.960Z,17.65
2018-07-19T00:37:50.992Z,17.61
2018-07-19T00:40:19.039Z,17.60
2018-07-19T00:42:47.083Z,17.56
2018-07-19T00:45:15.147Z,17.53
2018-07-19T00:47:43.232Z,17.51
2018-07-19T00:50:11.264Z,17.46
2018-07-19T00:52:39.300Z,17.43
2018-07-19T00:55:07.334Z,17.41
2018-07-19T00:57:35.407Z,17.39
2018-07-19T01:00:03.444Z,17.36
2018-07-19T01:02:31.488Z,17.33
2018-07-19T01:04:59.531Z,17.29
2018-07-19T01:07:27.591Z,17.25
2018-07-19T01:09:55.635Z,17.20
2018-07-19T01:12:23.668Z,17.17
2018-07-19T01:14:51.700Z,17.14
2018-07-19T01:17:19.783Z,17.13
2018-07-19T01:19:47.811Z,17.09
2018-07-19T01:22:15.856Z,17.09
2018-07-19T01:24:43.877Z,17.03
2018-07-19T01:27:11.935Z,17.02
2018-07-19T01:29:39.964Z,17.00
2018-07-19T01:32:08.014Z,16.99
2018-07-19T01:34:36.048Z,16.95
2018-07-19T01:37:04.085Z,16.93
2018-07-19T01:39:32.151Z,16.89
2018-07-19T01:42:21.352Z,16.85
2018-07-19T01:44:49.391Z,16.83
2018-07-19T01:47:17.469Z,16.78
2018-07-19T01:49:46.297Z,16.76
2018-07-19T01:52:14.768Z,16.73
2018-07-19T01:54:42.848Z,16.71
2018-07-19T01:57:13.059Z,16.68
2018-07-19T01:59:41.841Z,16.66
2018-07-19T02:02:09.941Z,16.63
2018-07-19T02:04:37.991Z,16.62
2018-07-19T02:07:06.127Z,16.58
2018-07-19T02:09:34.164Z,16.54
2018-07-19T02:12:02.204Z,16.52
2018-07-19T02:14:30.683Z,16.50
2018-07-19T02:16:58.740Z,16.47
2018-07-19T02:19:26.797Z,16.45
2018-07-19T02:21:54.844Z,16.43
2018-07-19T02:24:22.888Z,16.43
2018-07-19T02:26:50.943Z,16.40
2018-07-19T02:29:19.084Z,16.37
2018-07-19T02:31:47.124Z,16.35
2018-07-19T02:34:15.164Z,16.33
2018-07-19T02:36:43.201Z,16.33
2018-07-19T02:39:12.312Z,16.31
2018-07-19T02:41:40.557Z,16.30
2018-07-19T02:44:09.761Z,16.29
2018-07-19T02:46:38.964Z,16.27
2018-07-19T02:49:07.124Z,16.26
2018-07-19T02:51:35.163Z,16.24
2018-07-19T02:54:03.227Z,16.23
2018-07-19T02:56:31.259Z,16.20
2018-07-19T02:58:59.319Z,16.19
2018-07-19T03:01:27.367Z,16.15
2018-07-19T03:03:55.420Z,16.13
2018-07-19T03:06:23.455Z,16.12
2018-07-19T03:08:51.516Z,16.09
2018-07-19T03:11:19.564Z,16.04
2018-07-19T03:13:47.667Z,16.02
2018-07-19T03:16:15.733Z,15.99
2018-07-19T03:18:43.804Z,15.98
2018-07-19T03:21:12.031Z,15.98
2018-07-19T03:23:40.150Z,15.94
2018-07-19T03:26:08.192Z,15.92
2018-07-19T03:28:36.295Z,15.90
2018-07-19T03:31:04.447Z,15.89
2018-07-19T03:33:32.511Z,15.87
2018-07-19T03:36:00.568Z,15.86
2018-07-19T03:38:28.608Z,15.84
2018-07-19T03:40:56.679Z,15.84
2018-07-19T03:43:24.744Z,15.83
2018-07-19T03:45:52.788Z,15.82
2018-07-19T03:48:20.931Z,15.80
2018-07-19T03:50:48.972Z,15.78
2018-07-19T03:53:17.015Z,15.78
2018-07-19T03:55:45.039Z,15.75
2018-07-19T03:58:13.073Z,15.70
2018-07-19T04:00:41.121Z,15.68
2018-07-19T04:03:09.206Z,15.66
2018-07-19T04:05:37.288Z,15.67
2018-07-19T04:08:05.604Z,15.67
2018-07-19T04:10:33.645Z,15.66
2018-07-19T04:13:01.742Z,15.68
2018-07-19T04:15:29.796Z,15.67
2018-07-19T04:17:58.564Z,15.69
2018-07-19T04:20:28.972Z,15.69
2018-07-19T04:22:57.260Z,15.71
2018-07-19T04:25:25.752Z,15.73
2018-07-19T04:27:54.964Z,15.75
2018-07-19T04:30:23.027Z,15.78
2018-07-19T04:32:51.062Z,15.80
2018-07-19T04:35:19.694Z,15.81
2018-07-19T04:37:47.748Z,15.82
2018-07-19T04:40:15.888Z,15.85
2018-07-19T04:42:43.939Z,15.90
2018-07-19T04:45:12.009Z,15.95
2018-07-19T04:47:40.055Z,15.98
2018-07-19T04:50:08.130Z,16.06
2018-07-19T04:52:36.174Z,16.11
2018-07-19T04:55:04.215Z,16.15
2018-07-19T04:57:32.248Z,16.20
2018-07-19T05:00:00.315Z,16.25
2018-07-19T05:02:28.383Z,16.30
2018-07-19T05:04:56.450Z,16.36
2018-07-19T05:07:24.487Z,16.41
2018-07-19T05:09:52.519Z,16.48
2018-07-19T05:12:20.556Z,16.54
2018-07-19T05:14:48.612Z,16.63
2018-07-19T05:17:16.644Z,16.71
2018-07-19T05:19:44.708Z,16.80
2018-07-19T05:22:12.749Z,16.90
2018-07-19T05:24:40.800Z,17.00
2018-07-19T05:27:08.843Z,17.04
2018-07-19T05:29:36.907Z,17.09
2018-07-19T05:32:04.959Z,17.19
2018-07-19T05:34:33.005Z,17.26
2018-07-19T05:37:01.044Z,17.30
2018-07-19T05:39:29.289Z,17.40
2018-07-19T05:41:57.386Z,17.49
2018-07-19T05:44:25.375Z,17.56
2018-07-19T05:46:53.456Z,17.67
2018-07-19T05:49:21.484Z,17.69
2018-07-19T05:51:49.520Z,17.74
2018-07-19T05:54:17.547Z,17.77
2018-07-19T05:56:45.615Z,17.86
2018-07-19T05:59:13.715Z,17.93
2018-07-19T06:01:41.780Z,18.02
2018-07-19T06:04:09.839Z,18.10
2018-07-19T06:06:37.869Z,18.16
2018-07-19T06:09:07.835Z,18.27
2018-07-19T06:11:35.884Z,18.33
2018-07-19T06:14:04.387Z,18.36
2018-07-19T06:16:32.432Z,18.43
2018-07-19T06:19:00.468Z,18.53
2018-07-19T06:21:28.560Z,18.62
2018-07-19T06:23:56.642Z,18.71
2018-07-19T06:26:24.684Z,18.82
2018-07-19T06:28:52.724Z,18.89
2018-07-19T06:31:20.797Z,18.95
2018-07-19T06:33:48.823Z,19.07
2018-07-19T06:36:16.868Z,19.19
2018-07-19T06:38:44.913Z,19.34
2018-07-19T06:41:13.017Z,19.47
2018-07-19T06:43:41.020Z,19.54
2018-07-19T06:46:09.063Z,19.66
2018-07-19T06:48:37.110Z,19.78
2018-07-19T06:51:05.164Z,19.92
2018-07-19T06:53:33.212Z,20.05
2018-07-19T06:56:01.296Z,20.21
2018-07-19T06:58:29.340Z,20.35
2018-07-19T07:00:57.384Z,20.49
2018-07-19T07:03:25.436Z,20.62
2018-07-19T07:05:53.478Z,20.72
2018-07-19T07:08:21.508Z,20.89
2018-07-19T07:10:49.580Z,21.04
2018-07-19T07:13:17.644Z,21.15
2018-07-19T07:15:45.700Z,21.23
2018-07-19T07:18:13.741Z,21.38
2018-07-19T07:20:46.332Z,21.57
2018-07-19T07:23:14.394Z,21.81
2018-07-19T07:25:53.718Z,22.04
2018-07-19T07:28:22.922Z,22.25
2018-07-19T07:30:50.960Z,22.43
2018-07-19T07:33:19.553Z,22.56
2018-07-19T07:35:48.337Z,22.67
2018-07-19T07:42:04.799Z,23.05
2018-07-19T07:44:32.844Z,23.13
2018-07-19T07:47:00.916Z,23.30
2018-07-19T07:49:28.963Z,23.44
2018-07-19T07:51:57.028Z,23.68
2018-07-19T07:54:25.078Z,23.93
2018-07-19T07:56:53.111Z,24.18
2018-07-19T07:59:21.243Z,24.36
2018-07-19T08:01:49.271Z,24.52
2018-07-19T08:04:17.316Z,24.73
2018-07-19T08:06:45.383Z,24.89
2018-07-19T08:09:13.440Z,25.11
2018-07-19T08:11:41.512Z,25.33
2018-07-19T08:14:09.554Z,25.49
2018-07-19T08:16:37.612Z,25.60
2018-07-19T08:19:05.680Z,25.83
2018-07-19T08:21:33.752Z,25.91
2018-07-19T08:24:01.899Z,25.98
2018-07-19T08:26:29.959Z,26.24
2018-07-19T08:28:58.055Z,26.45
2018-07-19T08:31:26.085Z,26.54
2018-07-19T08:33:54.132Z,26.75
2018-07-19T08:36:22.168Z,26.99
2018-07-19T08:38:50.271Z,27.19
2018-07-19T08:41:18.316Z,27.34
2018-07-19T08:43:46.373Z,27.55
2018-07-19T08:46:14.416Z,27.68
2018-07-19T08:48:42.495Z,27.87
2018-07-19T08:51:10.547Z,28.03
2018-07-19T08:53:38.596Z,28.10
2018-07-19T08:56:06.699Z,28.21
2018-07-19T08:58:34.767Z,28.35
2018-07-19T09:01:02.836Z,28.53
2018-07-19T09:03:30.916Z,28.78
2018-07-19T09:05:58.952Z,28.99
2018-07-19T09:08:27.011Z,29.20
2018-07-19T09:10:55.144Z,29.33
2018-07-19T09:13:23.244Z,29.29
2018-07-19T09:15:51.331Z,29.36
2018-07-19T09:18:19.387Z,29.55
2018-07-19T09:20:47.445Z,29.88
2018-07-19T09:23:15.496Z,30.07
2018-07-19T09:25:43.555Z,30.23
2018-07-19T09:28:11.605Z,30.45
2018-07-19T09:30:39.675Z,30.64
2018-07-19T09:33:07.762Z,30.82
2018-07-19T09:35:35.779Z,30.83
2018-07-19T09:38:03.864Z,30.79
2018-07-19T09:40:31.932Z,30.85
2018-07-19T09:42:59.988Z,30.95
2018-07-19T09:45:28.045Z,31.13
2018-07-19T09:47:56.096Z,31.36
2018-07-19T09:50:24.143Z,31.54
2018-07-19T09:52:52.197Z,31.68
2018-07-19T09:55:20.248Z,31.78
2018-07-19T09:57:48.303Z,31.49
2018-07-19T10:00:20.563Z,31.44
2018-07-19T10:02:48.641Z,31.63
2018-07-19T10:05:16.685Z,31.87
2018-07-19T10:07:44.789Z,32.09
2018-07-19T10:10:12.855Z,32.18
2018-07-19T10:12:40.893Z,32.40
2018-07-19T10:15:08.943Z,32.55
2018-07-19T10:17:36.989Z,32.62
2018-07-19T10:20:05.080Z,32.44
2018-07-19T10:22:33.155Z,32.50
2018-07-19T10:25:01.221Z,32.75
2018-07-19T10:27:29.276Z,32.99
2018-07-19T10:29:57.358Z,33.01
2018-07-19T10:32:25.560Z,32.72
2018-07-19T10:34:53.479Z,32.32
2018-07-19T10:37:21.556Z,32.35
2018-07-19T10:39:49.616Z,32.24
2018-07-19T10:42:17.672Z,31.91
2018-07-19T10:44:45.740Z,31.88
2018-07-19T10:47:13.785Z,31.60
2018-07-19T10:49:41.867Z,31.31
2018-07-19T10:52:09.925Z,31.02
2018-07-19T10:54:37.980Z,30.74
2018-07-19T10:57:06.244Z,30.78
2018-07-19T10:59:34.324Z,30.95
2018-07-19T11:02:02.372Z,31.39
2018-07-19T11:04:30.432Z,31.27
2018-07-19T11:06:58.551Z,30.87
2018-07-19T11:09:26.670Z,30.70
2018-07-19T11:11:54.648Z,31.00
2018-07-19T11:14:22.702Z,31.33
2018-07-19T11:16:50.771Z,31.70
2018-07-19T11:19:18.816Z,31.96
2018-07-19T11:21:46.871Z,31.89
2018-07-19T11:24:14.946Z,32.05
2018-07-19T11:26:43.060Z,32.36
2018-07-19T11:29:11.164Z,32.21
2018-07-19T11:31:39.211Z,32.23
2018-07-19T11:34:07.279Z,31.72
2018-07-19T11:36:35.366Z,31.38
2018-07-19T11:39:03.576Z,31.00
2018-07-19T11:41:31.632Z,31.16
2018-07-19T11:43:59.684Z,31.56
2018-07-19T11:46:27.729Z,31.65
2018-07-19T11:48:55.780Z,32.00
2018-07-19T11:51:23.852Z,32.16
2018-07-19T11:53:51.928Z,32.43
2018-07-19T11:56:19.981Z,32.39
2018-07-19T11:58:48.041Z,32.69
2018-07-19T12:01:16.093Z,33.14
2018-07-19T12:03:44.172Z,32.89
2018-07-19T12:06:12.219Z,32.63
2018-07-19T12:08:40.325Z,32.77
2018-07-19T12:11:08.356Z,32.95
2018-07-19T12:13:36.435Z,32.79
2018-07-19T12:16:04.600Z,32.48
2018-07-19T12:18:32.653Z,32.28
2018-07-19T12:21:00.715Z,31.84
2018-07-19T12:23:28.791Z,31.79
2018-07-19T12:25:56.885Z,32.07
2018-07-19T12:28:24.930Z,32.03
2018-07-19T12:30:52.992Z,32.03
2018-07-19T12:33:21.036Z,32.18
2018-07-19T12:35:49.092Z,32.30
2018-07-19T12:38:17.165Z,32.47
2018-07-19T12:40:45.267Z,32.70
2018-07-19T12:43:13.328Z,32.65
2018-07-19T12:45:41.391Z,32.81
2018-07-19T12:48:09.453Z,32.89
2018-07-19T12:50:37.546Z,32.85
2018-07-19T12:53:05.596Z,32.86
2018-07-19T12:55:33.675Z,32.90
2018-07-19T12:58:01.724Z,33.08
2018-07-19T13:00:29.845Z,33.30
2018-07-19T13:02:57.924Z,33.52
2018-07-19T13:05:25.985Z,33.49
2018-07-19T13:07:54.019Z,33.40
2018-07-19T13:10:22.072Z,33.34
2018-07-19T13:12:50.133Z,33.25
2018-07-19T13:15:18.239Z,33.01
2018-07-19T13:17:46.233Z,32.65
2018-07-19T13:20:14.299Z,32.55
2018-07-19T13:22:42.360Z,32.64
2018-07-19T13:25:10.432Z,32.64
2018-07-19T13:27:38.456Z,32.58
2018-07-19T13:30:06.516Z,32.64
2018-07-19T13:32:34.560Z,32.89
2018-07-19T13:35:02.644Z,32.98
2018-07-19T13:37:30.680Z,33.01
2018-07-19T13:39:58.736Z,32.97
2018-07-19T13:42:26.812Z,33.05
2018-07-19T13:44:54.865Z,32.76
2018-07-19T13:47:22.912Z,32.51
2018-07-19T13:49:50.995Z,32.49
2018-07-19T13:52:27.740Z,32.64
2018-07-19T13:54:55.804Z,32.86
2018-07-19T13:57:23.880Z,32.98
2018-07-19T13:59:51.932Z,33.10
2018-07-19T14:02:19.979Z,32.95
2018-07-19T14:04:48.032Z,32.90
2018-07-19T14:07:16.076Z,32.88
2018-07-19T14:09:44.123Z,32.96
2018-07-19T14:12:12.220Z,32.87
2018-07-19T14:14:40.256Z,32.98
2018-07-19T14:17:08.343Z,32.98
2018-07-19T14:19:36.379Z,32.83
2018-07-19T14:22:04.428Z,32.77
2018-07-19T14:24:32.476Z,32.57
2018-07-19T14:27:00.552Z,32.30
2018-07-19T14:29:28.636Z,32.15
2018-07-19T14:31:56.705Z,32.07
2018-07-19T14:34:24.751Z,31.82
2018-07-19T14:36:52.820Z,31.73
2018-07-19T14:39:20.876Z,31.70
2018-07-19T14:41:48.929Z,31.72
2018-07-19T14:44:17.000Z,31.89
2018-07-19T14:46:45.069Z,31.86
2018-07-19T14:49:13.115Z,31.91
2018-07-19T14:51:41.205Z,31.97
2018-07-19T14:54:09.263Z,32.02
2018-07-19T14:56:37.319Z,32.05
2018-07-19T14:59:05.447Z,32.12
2018-07-19T15:01:33.518Z,32.20
2018-07-19T15:04:01.587Z,32.24
2018-07-19T15:06:29.657Z,32.10
2018-07-19T15:08:57.716Z,31.97
2018-07-19T15:11:25.800Z,31.69
2018-07-19T15:13:53.853Z,31.27
2018-07-19T15:16:21.900Z,31.05
2018-07-19T15:18:49.946Z,31.19
2018-07-19T15:21:18.004Z,31.31
2018-07-19T15:23:46.047Z,31.28
2018-07-19T15:26:14.103Z,31.21
2018-07-19T15:28:42.168Z,31.10
2018-07-19T15:31:10.222Z,31.01
2018-07-19T15:33:38.287Z,30.99
2018-07-19T15:36:06.336Z,31.00
2018-07-19T15:38:34.395Z,30.76
2018-07-19T15:41:02.448Z,30.53
2018-07-19T15:43:30.516Z,30.44
2018-07-19T15:45:58.560Z,30.28
2018-07-19T15:48:26.632Z,30.29
2018-07-19T15:50:54.667Z,30.25
2018-07-19T15:53:22.727Z,30.21
2018-07-19T15:55:50.823Z,30.21
2018-07-19T15:58:18.884Z,30.14
2018-07-19T16:00:46.930Z,30.02
2018-07-19T16:03:15.012Z,29.97
2018-07-19T16:05:43.073Z,29.84
2018-07-19T16:08:11.135Z,29.69
2018-07-19T16:10:39.171Z,29.49
2018-07-19T16:13:07.271Z,29.21
2018-07-19T16:15:35.311Z,29.09
2018-07-19T16:18:03.362Z,29.07
2018-07-19T16:20:31.963Z,29.02
2018-07-19T16:23:00.029Z,28.96
2018-07-19T16:25:28.132Z,28.82
2018-07-19T16:27:56.191Z,28.48
2018-07-19T16:30:24.343Z,28.26
2018-07-19T16:32:52.507Z,28.23
2018-07-19T16:35:20.455Z,28.25
2018-07-19T16:37:48.531Z,28.24
2018-07-19T16:40:16.591Z,28.09
2018-07-19T16:42:44.642Z,28.03
2018-07-19T16:45:12.672Z,28.05
2018-07-19T16:47:40.744Z,28.06
2018-07-19T16:50:08.776Z,28.10
2018-07-19T16:52:36.819Z,28.12
2018-07-19T16:55:04.879Z,28.07
2018-07-19T16:57:32.956Z,27.97
2018-07-19T17:00:01.260Z,27.88
2018-07-19T17:02:29.312Z,27.68
2018-07-19T17:04:57.348Z,27.52
2018-07-19T17:07:25.403Z,27.41
2018-07-19T17:09:53.447Z,27.34
2018-07-19T17:12:21.490Z,27.39
2018-07-19T17:14:49.532Z,27.39
2018-07-19T17:17:17.592Z,27.21
2018-07-19T17:19:45.643Z,27.21
2018-07-19T17:22:13.726Z,27.19
2018-07-19T17:24:41.766Z,27.14
2018-07-19T17:27:09.842Z,27.14
2018-07-19T17:29:37.893Z,27.13
2018-07-19T17:32:05.972Z,27.13
2018-07-19T17:34:34.013Z,27.11
2018-07-19T17:37:02.067Z,27.11
2018-07-19T17:39:30.116Z,27.13
2018-07-19T17:41:58.156Z,27.10
2018-07-19T17:44:26.259Z,26.92
2018-07-19T17:46:54.340Z,26.85
2018-07-19T17:49:22.411Z,26.85
2018-07-19T17:51:50.473Z,26.77
2018-07-19T17:54:18.539Z,26.73
2018-07-19T17:56:46.571Z,26.73
2018-07-19T17:59:14.617Z,26.77
2018-07-19T18:01:42.700Z,26.73
2018-07-19T18:04:10.768Z,26.65
2018-07-19T18:06:38.816Z,26.62
2018-07-19T18:09:08.457Z,26.56
2018-07-19T18:11:36.491Z,26.50
2018-07-19T18:14:04.547Z,26.44
2018-07-19T18:16:32.580Z,26.36
2018-07-19T18:19:00.628Z,26.31
2018-07-19T18:21:28.668Z,26.27
2018-07-19T18:23:56.731Z,26.25
2018-07-19T18:26:24.782Z,26.22
2018-07-19T18:28:52.851Z,26.17
2018-07-19T18:31:20.897Z,26.10
2018-07-19T18:33:48.987Z,26.03
2018-07-19T18:36:17.032Z,25.96
2018-07-19T18:38:45.097Z,25.86
2018-07-19T18:41:13.147Z,25.72
2018-07-19T18:43:41.219Z,25.67
2018-07-19T18:46:09.264Z,25.62
2018-07-19T18:48:37.313Z,25.56
2018-07-19T18:51:05.404Z,25.52
2018-07-19T18:53:33.463Z,25.45
2018-07-19T18:56:01.495Z,25.36
2018-07-19T18:58:29.553Z,25.27
2018-07-19T19:00:57.619Z,25.19
2018-07-19T19:03:25.700Z,25.11
2018-07-19T19:05:53.768Z,25.04
2018-07-19T19:08:21.834Z,24.94
2018-07-19T19:10:49.876Z,24.87
2018-07-19T19:13:17.935Z,24.77
2018-07-19T19:15:46.071Z,24.68
2018-07-19T19:18:14.135Z,24.59
2018-07-19T19:20:42.195Z,24.50
2018-07-19T19:23:10.225Z,24.41
2018-07-19T19:25:38.326Z,24.30
2018-07-19T19:28:06.352Z,24.20
2018-07-19T19:30:34.406Z,24.07
2018-07-19T19:33:02.485Z,23.93
2018-07-19T19:35:30.527Z,23.80
2018-07-19T19:37:58.571Z,23.67
2018-07-19T19:40:26.668Z,23.53
2018-07-19T19:42:54.680Z,23.41
2018-07-19T19:45:22.751Z,23.31
2018-07-19T19:47:50.813Z,23.19
2018-07-19T19:50:18.855Z,23.08
2018-07-19T19:52:46.897Z,22.99
2018-07-19T19:55:14.959Z,22.89
2018-07-19T19:57:42.996Z,22.79
2018-07-19T20:00:11.048Z,22.68
2018-07-19T20:02:39.084Z,22.56
2018-07-19T20:05:07.131Z,22.46
2018-07-19T20:07:35.164Z,22.35
2018-07-19T20:10:03.223Z,22.25
2018-07-19T20:12:31.287Z,22.14
2018-07-19T20:14:59.359Z,22.04
2018-07-19T20:17:27.415Z,21.96
2018-07-19T20:19:55.471Z,21.88
2018-07-19T20:22:23.509Z,21.79
2018-07-19T20:24:51.560Z,21.72
2018-07-19T20:27:19.599Z,21.66
2018-07-19T20:29:47.640Z,21.59
2018-07-19T20:32:15.699Z,21.52
2018-07-19T20:34:43.749Z,21.43
2018-07-19T20:37:11.776Z,21.35
2018-07-19T20:39:39.841Z,21.26
2018-07-19T20:42:07.931Z,21.20
2018-07-19T20:44:36.016Z,21.12
2018-07-19T20:47:04.056Z,21.06
2018-07-19T20:49:32.104Z,21.00
2018-07-19T20:52:00.184Z,20.95
2018-07-19T20:54:28.227Z,20.89
2018-07-19T20:56:56.264Z,20.82
2018-07-19T20:59:24.341Z,20.74
2018-07-19T21:01:52.372Z,20.68
2018-07-19T21:04:20.440Z,20.63
2018-07-19T21:06:48.470Z,20.59
2018-07-19T21:09:16.516Z,20.54
2018-07-19T21:11:45.391Z,20.50
2018-07-19T21:14:13.440Z,20.44
2018-07-19T21:16:41.486Z,20.40
2018-07-19T21:19:09.539Z,20.37
2018-07-19T21:21:37.579Z,20.32
2018-07-19T21:24:05.635Z,20.28
2018-07-19T21:26:33.668Z,20.22
2018-07-19T21:29:01.707Z,20.18
2018-07-19T21:31:29.771Z,20.13
2018-07-19T21:33:57.805Z,20.08
2018-07-19T21:36:25.864Z,20.04
2018-07-19T21:38:53.908Z,19.99
2018-07-19T21:41:21.937Z,19.96
2018-07-19T21:43:49.984Z,19.93
2018-07-19T21:46:18.012Z,19.88
2018-07-19T21:48:46.032Z,19.83
2018-07-19T21:51:14.060Z,19.78
2018-07-19T21:53:42.124Z,19.74
2018-07-19T21:56:10.231Z,19.68
2018-07-19T21:58:38.231Z,19.63
2018-07-19T22:01:10.231Z,19.61
2018-07-19T22:03:38.696Z,19.56
2018-07-19T22:06:06.829Z,19.53
2018-07-19T22:08:34.872Z,19.46
2018-07-19T22:11:03.195Z,19.43
2018-07-19T22:13:31.224Z,19.40
2018-07-19T22:15:59.564Z,19.35
2018-07-19T22:18:27.595Z,19.32
2018-07-19T22:20:55.660Z,19.29
2018-07-19T22:23:23.691Z,19.24
2018-07-19T22:25:51.755Z,19.22
2018-07-19T22:28:19.772Z,19.20
2018-07-19T22:30:47.799Z,19.19
2018-07-19T22:33:15.840Z,19.16
2018-07-19T22:35:43.876Z,19.15
2018-07-19T22:38:11.912Z,19.12
2018-07-19T22:40:39.983Z,19.09
2018-07-19T22:43:08.031Z,19.05
2018-07-19T22:45:36.117Z,19.02
2018-07-19T22:48:04.140Z,18.99
2018-07-19T22:50:32.203Z,18.97
2018-07-19T22:53:00.253Z,18.94
2018-07-19T22:55:28.287Z,18.94
2018-07-19T22:57:56.330Z,18.91
2018-07-19T23:00:24.383Z,18.88
2018-07-19T23:02:52.455Z,18.81
2018-07-19T23:05:20.496Z,18.79
2018-07-19T23:07:48.532Z,18.76
2018-07-19T23:10:16.582Z,18.74
2018-07-19T23:12:44.620Z,18.74
2018-07-19T23:15:12.648Z,18.73
2018-07-19T23:17:40.752Z,18.69
2018-07-19T23:20:08.964Z,18.66
2018-07-19T23:22:36.991Z,18.64
2018-07-19T23:25:05.108Z,18.61
2018-07-19T23:27:33.154Z,18.58
2018-07-19T23:30:01.200Z,18.56
2018-07-19T23:32:29.225Z,18.50
2018-07-19T23:34:57.312Z,18.47
2018-07-19T23:37:29.794Z,18.42
2018-07-19T23:40:04.052Z,18.37
2018-07-19T23:42:35.112Z,18.32
2018-07-19T23:47:11.226Z,18.26
2018-07-19T23:49:39.440Z,18.10
2018-07-19T23:52:07.508Z,18.02
2018-07-19T23:54:35.540Z,17.99
2018-07-19T23:57:03.575Z,17.96
2018-07-19T23:59:31.608Z,17.92
